Laconia, New Hampshire
Current Conditions -  °F | °C
As of 2:35 AM on Wednesday 22 Oct 2014 (Local Time) from KLCI Reporting Station
Overcast Overcast  
Wind Chill:   Ceiling: 1400
Heat Index:   Visibility: 10mi
Dew Point:   Wind: 12mph
Humidity: 87%   Direction: 60°ENE
Pressure: 30.04"   Gusts: 16mph
Location:  43.56°N, 71.48°W
Report Text: KLCI 220635Z AUTO 06010G14KT 10SM FEW010 BKN014 OVC020 08/06 A3004 RMK AO1
Loading
Personal Weather Stations






























Interactive Weather Map
Tropical Storm Tracking
New forecast layout! Learn more

10-Day Weather Forecast

Advertisements
Track Severe Weather on mobile